CheckWX is a tool to help pilots better visualize weather data.  It is not intended as a substitute for an official pre-flight weather briefing.

03:49:15 UTC

KHNR METAR
Harlan Municipal Airport
Harlan, Iowa, USA
Current

14 mins ago

KHNR 180335Z AUTO 19007KT 10SM CLR 24/21 A2993 RMK AO2 PWINO
Observed
Sep-18 @ 03:35 UTC
Wind
  • 190° at 7 KTS
Visibility
10 SM
Flight Rules
VFR
Cloud Levels
  • Clear skies
Temperature
24°C / 75°F
Dewpoint
21°C / 70°F
Humidity
83%
Altimeter
29.93" Hg
Pressure
1013.52 hPa
Previous

34 mins ago

KHNR 180315Z AUTO 17008KT 10SM CLR 24/21 A2993 RMK AO2 PWINO
Observed
Sep-18 @ 03:15 UTC
Wind
  • 170° at 8 KTS
Visibility
10 SM
Flight Rules
VFR
Cloud Levels
  • Clear skies
Temperature
24°C / 75°F
Dewpoint
21°C / 70°F
Humidity
83%
Altimeter
29.93" Hg
Pressure
1013.52 hPa
Previous

54 mins ago

KHNR 180255Z AUTO 20007KT 10SM CLR 24/21 A2993 RMK AO2 PWINO
Observed
Sep-18 @ 02:55 UTC
Wind
  • 200° at 7 KTS
Visibility
10 SM
Flight Rules
VFR
Cloud Levels
  • Clear skies
Temperature
24°C / 75°F
Dewpoint
21°C / 70°F
Humidity
83%
Altimeter
29.93" Hg
Pressure
1013.52 hPa